sensor_id;sensor_type;location;lat;lon;timestamp;P1;durP1;ratioP1;P2;durP2;ratioP2
22881;SDS011;11608;50.894;5.296;2023-04-05T00:02:12;27.43;;;24.77;;
22881;SDS011;11608;50.894;5.296;2023-04-05T00:04:42;28.70;;;26.23;;
22881;SDS011;11608;50.894;5.296;2023-04-05T00:07:14;29.87;;;27.10;;
22881;SDS011;11608;50.894;5.296;2023-04-05T00:09:41;28.93;;;26.30;;
22881;SDS011;11608;50.894;5.296;2023-04-05T00:12:07;29.37;;;26.73;;
22881;SDS011;11608;50.894;5.296;2023-04-05T00:14:36;29.00;;;26.40;;
22881;SDS011;11608;50.894;5.296;2023-04-05T00:17:02;28.97;;;26.57;;
22881;SDS011;11608;50.894;5.296;2023-04-05T00:19:28;29.03;;;26.47;;
22881;SDS011;11608;50.894;5.296;2023-04-05T00:22:02;29.30;;;26.57;;
22881;SDS011;11608;50.894;5.296;2023-04-05T00:24:37;30.70;;;27.70;;
22881;SDS011;11608;50.894;5.296;2023-04-05T00:27:06;30.10;;;27.37;;
22881;SDS011;11608;50.894;5.296;2023-04-05T00:29:34;28.53;;;26.03;;
22881;SDS011;11608;50.894;5.296;2023-04-05T00:32:00;27.97;;;25.67;;
22881;SDS011;11608;50.894;5.296;2023-04-05T00:34:28;28.00;;;25.43;;
22881;SDS011;11608;50.894;5.296;2023-04-05T00:36:56;28.17;;;25.67;;
22881;SDS011;11608;50.894;5.296;2023-04-05T00:39:25;27.50;;;25.30;;
22881;SDS011;11608;50.894;5.296;2023-04-05T00:41:51;27.70;;;25.33;;
22881;SDS011;11608;50.894;5.296;2023-04-05T00:44:17;28.67;;;26.17;;
22881;SDS011;11608;50.894;5.296;2023-04-05T00:46:45;28.03;;;25.73;;
22881;SDS011;11608;50.894;5.296;2023-04-05T00:49:12;28.17;;;25.90;;
22881;SDS011;11608;50.894;5.296;2023-04-05T00:51:38;28.20;;;25.70;;
22881;SDS011;11608;50.894;5.296;2023-04-05T00:54:06;27.20;;;25.00;;
22881;SDS011;11608;50.894;5.296;2023-04-05T00:56:33;29.07;;;26.03;;
22881;SDS011;11608;50.894;5.296;2023-04-05T00:59:00;29.10;;;26.60;;
22881;SDS011;11608;50.894;5.296;2023-04-05T01:01:26;28.53;;;26.13;;
22881;SDS011;11608;50.894;5.296;2023-04-05T01:04:00;28.10;;;25.70;;
22881;SDS011;11608;50.894;5.296;2023-04-05T01:09:08;27.90;;;25.50;;
22881;SDS011;11608;50.894;5.296;2023-04-05T01:11:41;29.83;;;27.40;;
22881;SDS011;11608;50.894;5.296;2023-04-05T01:14:12;29.83;;;27.23;;
22881;SDS011;11608;50.894;5.296;2023-04-05T01:16:43;31.00;;;28.17;;
22881;SDS011;11608;50.894;5.296;2023-04-05T01:19:09;31.73;;;28.63;;
22881;SDS011;11608;50.894;5.296;2023-04-05T01:21:47;30.50;;;27.57;;
22881;SDS011;11608;50.894;5.296;2023-04-05T01:27:06;31.50;;;28.80;;
22881;SDS011;11608;50.894;5.296;2023-04-05T01:30:19;31.20;;;28.40;;
22881;SDS011;11608;50.894;5.296;2023-04-05T01:32:44;30.77;;;28.03;;
22881;SDS011;11608;50.894;5.296;2023-04-05T01:37:44;31.33;;;28.27;;
22881;SDS011;11608;50.894;5.296;2023-04-05T01:40:17;31.93;;;28.83;;
22881;SDS011;11608;50.894;5.296;2023-04-05T01:42:50;30.13;;;27.53;;
22881;SDS011;11608;50.894;5.296;2023-04-05T01:45:19;32.17;;;29.07;;
22881;SDS011;11608;50.894;5.296;2023-04-05T01:47:45;31.77;;;28.87;;
22881;SDS011;11608;50.894;5.296;2023-04-05T01:50:24;31.23;;;28.30;;
22881;SDS011;11608;50.894;5.296;2023-04-05T01:52:55;29.43;;;26.80;;
22881;SDS011;11608;50.894;5.296;2023-04-05T01:55:23;30.37;;;27.57;;
22881;SDS011;11608;50.894;5.296;2023-04-05T01:57:53;30.50;;;27.67;;
22881;SDS011;11608;50.894;5.296;2023-04-05T02:00:22;29.60;;;26.90;;
22881;SDS011;11608;50.894;5.296;2023-04-05T02:02:48;29.63;;;27.10;;
22881;SDS011;11608;50.894;5.296;2023-04-05T02:05:16;29.17;;;26.77;;
22881;SDS011;11608;50.894;5.296;2023-04-05T02:07:42;28.83;;;26.43;;
22881;SDS011;11608;50.894;5.296;2023-04-05T02:10:11;30.40;;;27.80;;
22881;SDS011;11608;50.894;5.296;2023-04-05T02:12:37;31.10;;;28.30;;
22881;SDS011;11608;50.894;5.296;2023-04-05T02:15:05;30.53;;;27.83;;
22881;SDS011;11608;50.894;5.296;2023-04-05T02:17:32;31.70;;;28.87;;
22881;SDS011;11608;50.894;5.296;2023-04-05T02:20:12;32.07;;;29.17;;
22881;SDS011;11608;50.894;5.296;2023-04-05T02:22:43;31.53;;;28.60;;
22881;SDS011;11608;50.894;5.296;2023-04-05T02:25:10;32.20;;;29.30;;
22881;SDS011;11608;50.894;5.296;2023-04-05T02:27:37;30.90;;;28.20;;
22881;SDS011;11608;50.894;5.296;2023-04-05T02:30:05;31.77;;;28.77;;
22881;SDS011;11608;50.894;5.296;2023-04-05T02:32:34;31.13;;;28.10;;
22881;SDS011;11608;50.894;5.296;2023-04-05T02:35:00;30.87;;;28.07;;
22881;SDS011;11608;50.894;5.296;2023-04-05T02:37:29;30.37;;;27.67;;
22881;SDS011;11608;50.894;5.296;2023-04-05T02:40:11;30.70;;;28.00;;
22881;SDS011;11608;50.894;5.296;2023-04-05T02:42:57;30.80;;;27.93;;
22881;SDS011;11608;50.894;5.296;2023-04-05T02:45:41;30.00;;;27.10;;
22881;SDS011;11608;50.894;5.296;2023-04-05T02:48:09;30.73;;;28.03;;
22881;SDS011;11608;50.894;5.296;2023-04-05T02:50:36;31.57;;;28.53;;
22881;SDS011;11608;50.894;5.296;2023-04-05T02:53:02;30.60;;;27.80;;
22881;SDS011;11608;50.894;5.296;2023-04-05T02:55:35;30.80;;;27.87;;
22881;SDS011;11608;50.894;5.296;2023-04-05T02:58:04;30.00;;;27.30;;
22881;SDS011;11608;50.894;5.296;2023-04-05T03:00:30;31.03;;;28.30;;
22881;SDS011;11608;50.894;5.296;2023-04-05T03:02:58;30.77;;;28.03;;
22881;SDS011;11608;50.894;5.296;2023-04-05T03:05:27;31.27;;;28.13;;
22881;SDS011;11608;50.894;5.296;2023-04-05T03:07:54;31.93;;;29.07;;
22881;SDS011;11608;50.894;5.296;2023-04-05T03:10:20;30.50;;;27.80;;
22881;SDS011;11608;50.894;5.296;2023-04-05T03:12:50;29.67;;;27.17;;
22881;SDS011;11608;50.894;5.296;2023-04-05T03:15:33;30.97;;;28.20;;
22881;SDS011;11608;50.894;5.296;2023-04-05T03:18:00;31.97;;;28.97;;
22881;SDS011;11608;50.894;5.296;2023-04-05T03:20:29;32.80;;;29.57;;
22881;SDS011;11608;50.894;5.296;2023-04-05T03:23:02;31.07;;;28.17;;
22881;SDS011;11608;50.894;5.296;2023-04-05T03:25:33;31.27;;;28.27;;
22881;SDS011;11608;50.894;5.296;2023-04-05T03:28:02;32.13;;;29.07;;
22881;SDS011;11608;50.894;5.296;2023-04-05T03:30:30;33.70;;;30.60;;
22881;SDS011;11608;50.894;5.296;2023-04-05T03:33:01;32.33;;;29.37;;
22881;SDS011;11608;50.894;5.296;2023-04-05T03:35:28;32.20;;;29.30;;
22881;SDS011;11608;50.894;5.296;2023-04-05T03:37:57;32.10;;;29.30;;
22881;SDS011;11608;50.894;5.296;2023-04-05T03:40:25;32.40;;;29.50;;
22881;SDS011;11608;50.894;5.296;2023-04-05T03:42:51;31.13;;;28.27;;
22881;SDS011;11608;50.894;5.296;2023-04-05T03:45:20;32.87;;;29.90;;
22881;SDS011;11608;50.894;5.296;2023-04-05T03:47:51;34.00;;;30.90;;
22881;SDS011;11608;50.894;5.296;2023-04-05T03:50:18;34.40;;;31.37;;
22881;SDS011;11608;50.894;5.296;2023-04-05T03:52:54;32.87;;;30.00;;
22881;SDS011;11608;50.894;5.296;2023-04-05T03:55:20;32.07;;;28.97;;
22881;SDS011;11608;50.894;5.296;2023-04-05T03:57:46;33.10;;;30.20;;
22881;SDS011;11608;50.894;5.296;2023-04-05T04:00:12;33.13;;;30.17;;
22881;SDS011;11608;50.894;5.296;2023-04-05T04:02:41;32.17;;;29.30;;
22881;SDS011;11608;50.894;5.296;2023-04-05T04:05:15;33.33;;;30.20;;
22881;SDS011;11608;50.894;5.296;2023-04-05T04:07:43;33.07;;;29.97;;
22881;SDS011;11608;50.894;5.296;2023-04-05T04:10:13;31.67;;;29.17;;
22881;SDS011;11608;50.894;5.296;2023-04-05T04:12:42;34.63;;;31.43;;
22881;SDS011;11608;50.894;5.296;2023-04-05T04:15:08;32.93;;;29.87;;
22881;SDS011;11608;50.894;5.296;2023-04-05T04:17:37;32.97;;;29.97;;
22881;SDS011;11608;50.894;5.296;2023-04-05T04:20:04;34.43;;;31.07;;
22881;SDS011;11608;50.894;5.296;2023-04-05T04:22:38;32.93;;;29.93;;
22881;SDS011;11608;50.894;5.296;2023-04-05T04:25:10;33.37;;;30.57;;
22881;SDS011;11608;50.894;5.296;2023-04-05T04:27:43;33.87;;;30.87;;
22881;SDS011;11608;50.894;5.296;2023-04-05T04:30:12;33.47;;;30.20;;
22881;SDS011;11608;50.894;5.296;2023-04-05T04:32:39;32.70;;;29.60;;
22881;SDS011;11608;50.894;5.296;2023-04-05T04:35:19;32.77;;;29.77;;
22881;SDS011;11608;50.894;5.296;2023-04-05T04:38:04;32.50;;;29.60;;
22881;SDS011;11608;50.894;5.296;2023-04-05T04:40:31;35.23;;;31.40;;
22881;SDS011;11608;50.894;5.296;2023-04-05T04:43:08;34.17;;;30.97;;
22881;SDS011;11608;50.894;5.296;2023-04-05T04:45:38;33.90;;;30.53;;
22881;SDS011;11608;50.894;5.296;2023-04-05T04:48:07;34.27;;;31.27;;
22881;SDS011;11608;50.894;5.296;2023-04-05T04:50:33;34.63;;;31.20;;
22881;SDS011;11608;50.894;5.296;2023-04-05T04:53:07;35.43;;;32.10;;
22881;SDS011;11608;50.894;5.296;2023-04-05T04:55:36;37.63;;;33.87;;
22881;SDS011;11608;50.894;5.296;2023-04-05T04:58:02;33.67;;;30.50;;
22881;SDS011;11608;50.894;5.296;2023-04-05T05:00:36;35.23;;;31.83;;
22881;SDS011;11608;50.894;5.296;2023-04-05T05:03:03;34.23;;;31.03;;
22881;SDS011;11608;50.894;5.296;2023-04-05T05:05:42;35.20;;;31.77;;
22881;SDS011;11608;50.894;5.296;2023-04-05T05:08:10;35.60;;;32.27;;
22881;SDS011;11608;50.894;5.296;2023-04-05T05:10:39;33.63;;;30.23;;
22881;SDS011;11608;50.894;5.296;2023-04-05T05:13:07;33.07;;;29.40;;
22881;SDS011;11608;50.894;5.296;2023-04-05T05:15:44;32.77;;;29.67;;
22881;SDS011;11608;50.894;5.296;2023-04-05T05:18:14;33.47;;;29.97;;
22881;SDS011;11608;50.894;5.296;2023-04-05T05:20:42;33.50;;;30.30;;
22881;SDS011;11608;50.894;5.296;2023-04-05T05:23:09;33.17;;;29.97;;
22881;SDS011;11608;50.894;5.296;2023-04-05T05:25:35;34.43;;;30.40;;
22881;SDS011;11608;50.894;5.296;2023-04-05T05:28:01;32.50;;;29.27;;
22881;SDS011;11608;50.894;5.296;2023-04-05T05:30:30;33.93;;;30.63;;
22881;SDS011;11608;50.894;5.296;2023-04-05T05:32:57;33.47;;;30.20;;
22881;SDS011;11608;50.894;5.296;2023-04-05T05:35:30;31.20;;;28.40;;
22881;SDS011;11608;50.894;5.296;2023-04-05T05:37:57;30.50;;;27.57;;
22881;SDS011;11608;50.894;5.296;2023-04-05T05:40:25;31.87;;;28.83;;
22881;SDS011;11608;50.894;5.296;2023-04-05T05:43:12;31.30;;;28.40;;
22881;SDS011;11608;50.894;5.296;2023-04-05T05:45:42;30.43;;;27.73;;
22881;SDS011;11608;50.894;5.296;2023-04-05T05:48:08;31.47;;;28.43;;
22881;SDS011;11608;50.894;5.296;2023-04-05T05:50:43;31.30;;;28.43;;
22881;SDS011;11608;50.894;5.296;2023-04-05T05:53:12;30.57;;;27.83;;
22881;SDS011;11608;50.894;5.296;2023-04-05T05:55:39;32.03;;;29.03;;
22881;SDS011;11608;50.894;5.296;2023-04-05T05:58:15;30.30;;;27.70;;
22881;SDS011;11608;50.894;5.296;2023-04-05T06:00:43;32.73;;;29.63;;
22881;SDS011;11608;50.894;5.296;2023-04-05T06:03:14;33.07;;;30.00;;
22881;SDS011;11608;50.894;5.296;2023-04-05T06:05:41;31.67;;;28.50;;
22881;SDS011;11608;50.894;5.296;2023-04-05T06:08:15;31.77;;;28.80;;
22881;SDS011;11608;50.894;5.296;2023-04-05T06:10:41;32.27;;;29.37;;
22881;SDS011;11608;50.894;5.296;2023-04-05T06:13:07;31.80;;;28.77;;
22881;SDS011;11608;50.894;5.296;2023-04-05T06:15:38;32.97;;;30.03;;
22881;SDS011;11608;50.894;5.296;2023-04-05T06:18:06;35.03;;;31.30;;
22881;SDS011;11608;50.894;5.296;2023-04-05T06:20:35;33.43;;;30.20;;
22881;SDS011;11608;50.894;5.296;2023-04-05T06:23:04;33.63;;;30.07;;
22881;SDS011;11608;50.894;5.296;2023-04-05T06:25:30;32.93;;;29.70;;
22881;SDS011;11608;50.894;5.296;2023-04-05T06:28:01;32.10;;;29.00;;
22881;SDS011;11608;50.894;5.296;2023-04-05T06:30:30;36.63;;;29.47;;
22881;SDS011;11608;50.894;5.296;2023-04-05T06:32:59;34.03;;;30.37;;
22881;SDS011;11608;50.894;5.296;2023-04-05T06:35:28;32.33;;;29.20;;
22881;SDS011;11608;50.894;5.296;2023-04-05T06:37:56;33.77;;;30.33;;
22881;SDS011;11608;50.894;5.296;2023-04-05T06:40:22;34.33;;;31.03;;
22881;SDS011;11608;50.894;5.296;2023-04-05T06:42:51;32.40;;;29.50;;
22881;SDS011;11608;50.894;5.296;2023-04-05T06:45:17;32.13;;;29.03;;
22881;SDS011;11608;50.894;5.296;2023-04-05T06:47:43;33.37;;;29.80;;
22881;SDS011;11608;50.894;5.296;2023-04-05T06:50:09;32.37;;;29.37;;
22881;SDS011;11608;50.894;5.296;2023-04-05T06:52:38;32.07;;;28.90;;
22881;SDS011;11608;50.894;5.296;2023-04-05T06:55:04;34.13;;;30.53;;
22881;SDS011;11608;50.894;5.296;2023-04-05T06:57:31;33.43;;;30.33;;
22881;SDS011;11608;50.894;5.296;2023-04-05T06:59:57;33.20;;;30.00;;
22881;SDS011;11608;50.894;5.296;2023-04-05T07:02:26;31.90;;;28.97;;
22881;SDS011;11608;50.894;5.296;2023-04-05T07:04:52;31.40;;;28.60;;
22881;SDS011;11608;50.894;5.296;2023-04-05T07:07:18;31.93;;;28.83;;
22881;SDS011;11608;50.894;5.296;2023-04-05T07:09:47;30.57;;;27.77;;
22881;SDS011;11608;50.894;5.296;2023-04-05T07:12:13;32.08;;;28.52;;
22881;SDS011;11608;50.894;5.296;2023-04-05T07:14:39;31.30;;;28.30;;
22881;SDS011;11608;50.894;5.296;2023-04-05T07:17:05;31.05;;;27.90;;
22881;SDS011;11608;50.894;5.296;2023-04-05T07:19:32;31.08;;;28.20;;
22881;SDS011;11608;50.894;5.296;2023-04-05T07:22:00;31.35;;;28.45;;
22881;SDS011;11608;50.894;5.296;2023-04-05T07:24:26;28.80;;;26.40;;
22881;SDS011;11608;50.894;5.296;2023-04-05T07:26:52;30.55;;;27.58;;
22881;SDS011;11608;50.894;5.296;2023-04-05T07:29:24;31.13;;;27.98;;
22881;SDS011;11608;50.894;5.296;2023-04-05T07:31:50;31.08;;;28.20;;
22881;SDS011;11608;50.894;5.296;2023-04-05T07:34:16;31.63;;;28.63;;
22881;SDS011;11608;50.894;5.296;2023-04-05T07:36:43;32.72;;;29.80;;
22881;SDS011;11608;50.894;5.296;2023-04-05T07:39:11;32.35;;;29.05;;
22881;SDS011;11608;50.894;5.296;2023-04-05T07:41:44;31.73;;;28.40;;
22881;SDS011;11608;50.894;5.296;2023-04-05T07:44:13;31.80;;;28.85;;
22881;SDS011;11608;50.894;5.296;2023-04-05T07:46:39;31.25;;;28.35;;
22881;SDS011;11608;50.894;5.296;2023-04-05T07:49:08;31.95;;;28.80;;
22881;SDS011;11608;50.894;5.296;2023-04-05T07:51:36;31.98;;;28.98;;
22881;SDS011;11608;50.894;5.296;2023-04-05T07:54:04;30.60;;;27.67;;
22881;SDS011;11608;50.894;5.296;2023-04-05T07:56:31;31.50;;;28.20;;
22881;SDS011;11608;50.894;5.296;2023-04-05T07:58:59;30.27;;;27.35;;
22881;SDS011;11608;50.894;5.296;2023-04-05T08:01:27;30.23;;;27.33;;
22881;SDS011;11608;50.894;5.296;2023-04-05T08:03:56;32.92;;;28.70;;
22881;SDS011;11608;50.894;5.296;2023-04-05T08:06:22;29.67;;;27.00;;
22881;SDS011;11608;50.894;5.296;2023-04-05T08:08:54;30.13;;;27.45;;
22881;SDS011;11608;50.894;5.296;2023-04-05T08:11:20;29.48;;;26.85;;
22881;SDS011;11608;50.894;5.296;2023-04-05T08:13:46;29.75;;;26.88;;
22881;SDS011;11608;50.894;5.296;2023-04-05T08:16:15;29.98;;;27.27;;
22881;SDS011;11608;50.894;5.296;2023-04-05T08:18:41;30.70;;;27.52;;
22881;SDS011;11608;50.894;5.296;2023-04-05T08:21:09;30.02;;;26.85;;
22881;SDS011;11608;50.894;5.296;2023-04-05T08:23:35;29.77;;;26.83;;
22881;SDS011;11608;50.894;5.296;2023-04-05T08:26:02;29.75;;;26.88;;
22881;SDS011;11608;50.894;5.296;2023-04-05T08:28:28;30.02;;;27.13;;
22881;SDS011;11608;50.894;5.296;2023-04-05T08:30:54;30.92;;;27.73;;
22881;SDS011;11608;50.894;5.296;2023-04-05T08:33:21;30.05;;;27.13;;
22881;SDS011;11608;50.894;5.296;2023-04-05T08:36:05;29.33;;;26.70;;
22881;SDS011;11608;50.894;5.296;2023-04-05T08:38:31;30.55;;;27.55;;
22881;SDS011;11608;50.894;5.296;2023-04-05T08:41:07;29.83;;;27.23;;
22881;SDS011;11608;50.894;5.296;2023-04-05T08:43:43;28.33;;;25.50;;
22881;SDS011;11608;50.894;5.296;2023-04-05T08:46:13;28.95;;;26.25;;
22881;SDS011;11608;50.894;5.296;2023-04-05T08:48:40;28.05;;;25.83;;
22881;SDS011;11608;50.894;5.296;2023-04-05T08:51:09;28.08;;;25.42;;
22881;SDS011;11608;50.894;5.296;2023-04-05T08:53:35;27.50;;;25.00;;
22881;SDS011;11608;50.894;5.296;2023-04-05T08:56:03;27.33;;;24.92;;
22881;SDS011;11608;50.894;5.296;2023-04-05T08:58:32;27.70;;;25.13;;
22881;SDS011;11608;50.894;5.296;2023-04-05T09:01:00;26.25;;;24.08;;
22881;SDS011;11608;50.894;5.296;2023-04-05T09:03:35;27.33;;;25.13;;
22881;SDS011;11608;50.894;5.296;2023-04-05T09:06:03;26.92;;;24.55;;
22881;SDS011;11608;50.894;5.296;2023-04-05T09:08:33;27.35;;;24.75;;
22881;SDS011;11608;50.894;5.296;2023-04-05T09:11:02;26.92;;;24.63;;
22881;SDS011;11608;50.894;5.296;2023-04-05T09:13:29;27.65;;;25.35;;
22881;SDS011;11608;50.894;5.296;2023-04-05T09:15:56;27.23;;;24.83;;
22881;SDS011;11608;50.894;5.296;2023-04-05T09:18:22;25.88;;;23.55;;
22881;SDS011;11608;50.894;5.296;2023-04-05T09:20:48;26.48;;;24.00;;
22881;SDS011;11608;50.894;5.296;2023-04-05T09:23:17;26.48;;;24.27;;
22881;SDS011;11608;50.894;5.296;2023-04-05T09:25:43;26.65;;;24.25;;
22881;SDS011;11608;50.894;5.296;2023-04-05T09:28:10;24.80;;;22.80;;
22881;SDS011;11608;50.894;5.296;2023-04-05T09:30:36;26.85;;;24.38;;
22881;SDS011;11608;50.894;5.296;2023-04-05T09:33:08;26.25;;;23.98;;
22881;SDS011;11608;50.894;5.296;2023-04-05T09:35:36;25.95;;;23.75;;
22881;SDS011;11608;50.894;5.296;2023-04-05T09:38:03;25.98;;;23.67;;
22881;SDS011;11608;50.894;5.296;2023-04-05T09:40:45;26.85;;;24.63;;
22881;SDS011;11608;50.894;5.296;2023-04-05T09:43:35;26.88;;;24.52;;
22881;SDS011;11608;50.894;5.296;2023-04-05T09:46:01;25.92;;;23.80;;
22881;SDS011;11608;50.894;5.296;2023-04-05T09:48:48;27.38;;;25.10;;
22881;SDS011;11608;50.894;5.296;2023-04-05T09:51:15;26.77;;;24.58;;
22881;SDS011;11608;50.894;5.296;2023-04-05T09:53:58;25.92;;;23.90;;
22881;SDS011;11608;50.894;5.296;2023-04-05T09:56:25;25.98;;;23.88;;
22881;SDS011;11608;50.894;5.296;2023-04-05T09:59:00;25.83;;;23.73;;
22881;SDS011;11608;50.894;5.296;2023-04-05T10:01:31;25.40;;;23.30;;
22881;SDS011;11608;50.894;5.296;2023-04-05T10:04:00;25.60;;;23.50;;
22881;SDS011;11608;50.894;5.296;2023-04-05T10:06:39;25.10;;;23.17;;
22881;SDS011;11608;50.894;5.296;2023-04-05T10:09:13;26.17;;;23.98;;
22881;SDS011;11608;50.894;5.296;2023-04-05T10:11:46;26.25;;;24.02;;
22881;SDS011;11608;50.894;5.296;2023-04-05T10:14:12;26.20;;;23.85;;
22881;SDS011;11608;50.894;5.296;2023-04-05T10:16:44;27.00;;;24.45;;
22881;SDS011;11608;50.894;5.296;2023-04-05T10:19:22;25.65;;;22.90;;
22881;SDS011;11608;50.894;5.296;2023-04-05T10:21:52;25.55;;;23.38;;
22881;SDS011;11608;50.894;5.296;2023-04-05T10:29:37;24.92;;;22.83;;
22881;SDS011;11608;50.894;5.296;2023-04-05T10:32:09;25.25;;;23.08;;
22881;SDS011;11608;50.894;5.296;2023-04-05T10:34:47;24.90;;;22.90;;
22881;SDS011;11608;50.894;5.296;2023-04-05T10:37:29;25.50;;;23.35;;
22881;SDS011;11608;50.894;5.296;2023-04-05T10:40:02;25.92;;;23.50;;
22881;SDS011;11608;50.894;5.296;2023-04-05T10:42:32;25.02;;;22.90;;
22881;SDS011;11608;50.894;5.296;2023-04-05T10:45:03;26.23;;;23.98;;
22881;SDS011;11608;50.894;5.296;2023-04-05T10:47:43;25.55;;;23.45;;
22881;SDS011;11608;50.894;5.296;2023-04-05T10:50:16;25.58;;;23.60;;
22881;SDS011;11608;50.894;5.296;2023-04-05T10:52:49;25.40;;;23.25;;
22881;SDS011;11608;50.894;5.296;2023-04-05T10:55:23;25.17;;;23.15;;
22881;SDS011;11608;50.894;5.296;2023-04-05T10:57:49;25.27;;;23.38;;
22881;SDS011;11608;50.894;5.296;2023-04-05T11:00:18;25.63;;;23.33;;
22881;SDS011;11608;50.894;5.296;2023-04-05T11:02:47;26.23;;;24.00;;
22881;SDS011;11608;50.894;5.296;2023-04-05T11:07:58;25.83;;;23.67;;
22881;SDS011;11608;50.894;5.296;2023-04-05T11:10:27;26.13;;;23.83;;
22881;SDS011;11608;50.894;5.296;2023-04-05T11:13:01;25.92;;;23.63;;
22881;SDS011;11608;50.894;5.296;2023-04-05T11:15:31;25.88;;;23.67;;
22881;SDS011;11608;50.894;5.296;2023-04-05T11:18:09;25.17;;;23.02;;
22881;SDS011;11608;50.894;5.296;2023-04-05T11:23:09;26.08;;;23.80;;
22881;SDS011;11608;50.894;5.296;2023-04-05T11:25:41;25.48;;;23.23;;
22881;SDS011;11608;50.894;5.296;2023-04-05T11:28:20;26.55;;;24.23;;
22881;SDS011;11608;50.894;5.296;2023-04-05T11:30:47;25.02;;;23.08;;
22881;SDS011;11608;50.894;5.296;2023-04-05T11:36:29;25.45;;;23.30;;
22881;SDS011;11608;50.894;5.296;2023-04-05T11:41:44;25.65;;;23.55;;
22881;SDS011;11608;50.894;5.296;2023-04-05T11:44:14;25.35;;;23.17;;
22881;SDS011;11608;50.894;5.296;2023-04-05T11:46:44;25.33;;;23.20;;
22881;SDS011;11608;50.894;5.296;2023-04-05T11:49:13;25.58;;;23.38;;
22881;SDS011;11608;50.894;5.296;2023-04-05T11:51:48;26.10;;;23.88;;
22881;SDS011;11608;50.894;5.296;2023-04-05T11:54:35;24.98;;;22.88;;
22881;SDS011;11608;50.894;5.296;2023-04-05T11:57:08;26.48;;;24.27;;
22881;SDS011;11608;50.894;5.296;2023-04-05T11:59:36;25.80;;;23.80;;
22881;SDS011;11608;50.894;5.296;2023-04-05T12:02:07;27.23;;;24.83;;
22881;SDS011;11608;50.894;5.296;2023-04-05T12:04:33;25.17;;;23.17;;
22881;SDS011;11608;50.894;5.296;2023-04-05T12:07:13;26.42;;;24.00;;
22881;SDS011;11608;50.894;5.296;2023-04-05T12:10:03;26.05;;;23.75;;
22881;SDS011;11608;50.894;5.296;2023-04-05T12:12:34;24.92;;;22.92;;
22881;SDS011;11608;50.894;5.296;2023-04-05T12:15:02;25.92;;;23.80;;
22881;SDS011;11608;50.894;5.296;2023-04-05T12:17:48;25.92;;;23.55;;
22881;SDS011;11608;50.894;5.296;2023-04-05T12:20:19;25.45;;;23.33;;
22881;SDS011;11608;50.894;5.296;2023-04-05T12:22:48;25.52;;;23.27;;
22881;SDS011;11608;50.894;5.296;2023-04-05T12:25:15;24.83;;;22.83;;
22881;SDS011;11608;50.894;5.296;2023-04-05T12:27:41;24.58;;;22.58;;
22881;SDS011;11608;50.894;5.296;2023-04-05T12:32:56;24.75;;;22.65;;
22881;SDS011;11608;50.894;5.296;2023-04-05T12:35:27;23.38;;;21.40;;
22881;SDS011;11608;50.894;5.296;2023-04-05T12:38:00;24.50;;;22.55;;
22881;SDS011;11608;50.894;5.296;2023-04-05T12:40:27;24.50;;;22.50;;
22881;SDS011;11608;50.894;5.296;2023-04-05T12:43:06;24.33;;;22.23;;
22881;SDS011;11608;50.894;5.296;2023-04-05T12:45:33;25.52;;;23.50;;
22881;SDS011;11608;50.894;5.296;2023-04-05T12:48:09;26.05;;;24.02;;
22881;SDS011;11608;50.894;5.296;2023-04-05T12:50:45;25.88;;;23.67;;
22881;SDS011;11608;50.894;5.296;2023-04-05T12:53:19;23.88;;;22.05;;
22881;SDS011;11608;50.894;5.296;2023-04-05T12:58:15;25.83;;;23.60;;
22881;SDS011;11608;50.894;5.296;2023-04-05T13:00:42;25.42;;;23.27;;
22881;SDS011;11608;50.894;5.296;2023-04-05T13:03:18;25.75;;;23.33;;
22881;SDS011;11608;50.894;5.296;2023-04-05T13:05:50;26.42;;;24.10;;
22881;SDS011;11608;50.894;5.296;2023-04-05T13:08:16;25.23;;;23.13;;
22881;SDS011;11608;50.894;5.296;2023-04-05T13:10:45;26.92;;;24.58;;
22881;SDS011;11608;50.894;5.296;2023-04-05T13:13:15;25.88;;;23.77;;
22881;SDS011;11608;50.894;5.296;2023-04-05T13:15:42;26.38;;;24.17;;
22881;SDS011;11608;50.894;5.296;2023-04-05T13:18:10;25.35;;;23.35;;
22881;SDS011;11608;50.894;5.296;2023-04-05T13:20:42;26.42;;;24.27;;
22881;SDS011;11608;50.894;5.296;2023-04-05T13:23:08;26.08;;;23.90;;
22881;SDS011;11608;50.894;5.296;2023-04-05T13:25:38;25.42;;;23.42;;
22881;SDS011;11608;50.894;5.296;2023-04-05T13:28:10;26.25;;;24.00;;
22881;SDS011;11608;50.894;5.296;2023-04-05T13:30:36;26.67;;;24.55;;
22881;SDS011;11608;50.894;5.296;2023-04-05T13:33:02;24.77;;;22.83;;
22881;SDS011;11608;50.894;5.296;2023-04-05T13:35:32;26.90;;;24.60;;
22881;SDS011;11608;50.894;5.296;2023-04-05T13:37:58;27.05;;;24.85;;
22881;SDS011;11608;50.894;5.296;2023-04-05T13:40:27;25.33;;;23.33;;
22881;SDS011;11608;50.894;5.296;2023-04-05T13:42:55;25.20;;;23.30;;
22881;SDS011;11608;50.894;5.296;2023-04-05T13:45:24;26.85;;;24.60;;
22881;SDS011;11608;50.894;5.296;2023-04-05T13:47:57;25.13;;;23.33;;
22881;SDS011;11608;50.894;5.296;2023-04-05T13:50:23;25.17;;;23.25;;
22881;SDS011;11608;50.894;5.296;2023-04-05T13:52:50;27.65;;;25.25;;
22881;SDS011;11608;50.894;5.296;2023-04-05T13:55:16;27.23;;;24.92;;
22881;SDS011;11608;50.894;5.296;2023-04-05T13:57:43;26.65;;;24.52;;
22881;SDS011;11608;50.894;5.296;2023-04-05T14:00:09;27.70;;;25.38;;
22881;SDS011;11608;50.894;5.296;2023-04-05T14:02:40;27.30;;;24.92;;
22881;SDS011;11608;50.894;5.296;2023-04-05T14:05:06;27.30;;;24.88;;
22881;SDS011;11608;50.894;5.296;2023-04-05T14:07:35;26.08;;;23.80;;
22881;SDS011;11608;50.894;5.296;2023-04-05T14:10:01;26.52;;;24.40;;
22881;SDS011;11608;50.894;5.296;2023-04-05T14:12:30;27.13;;;24.90;;
22881;SDS011;11608;50.894;5.296;2023-04-05T14:14:56;26.52;;;24.40;;
22881;SDS011;11608;50.894;5.296;2023-04-05T14:17:24;27.38;;;25.08;;
22881;SDS011;11608;50.894;5.296;2023-04-05T14:19:59;26.15;;;23.85;;
22881;SDS011;11608;50.894;5.296;2023-04-05T14:22:25;26.52;;;24.42;;
22881;SDS011;11608;50.894;5.296;2023-04-05T14:24:51;27.75;;;25.35;;
22881;SDS011;11608;50.894;5.296;2023-04-05T14:27:17;25.48;;;23.63;;
22881;SDS011;11608;50.894;5.296;2023-04-05T14:29:46;28.55;;;26.10;;
22881;SDS011;11608;50.894;5.296;2023-04-05T14:32:19;26.58;;;24.35;;
22881;SDS011;11608;50.894;5.296;2023-04-05T14:34:45;27.42;;;25.13;;
22881;SDS011;11608;50.894;5.296;2023-04-05T14:37:12;28.20;;;25.50;;
22881;SDS011;11608;50.894;5.296;2023-04-05T14:39:42;27.77;;;25.55;;
22881;SDS011;11608;50.894;5.296;2023-04-05T14:42:10;26.77;;;24.58;;
22881;SDS011;11608;50.894;5.296;2023-04-05T14:44:36;26.88;;;24.67;;
22881;SDS011;11608;50.894;5.296;2023-04-05T14:47:03;28.15;;;25.95;;
22881;SDS011;11608;50.894;5.296;2023-04-05T14:49:29;26.67;;;24.55;;
22881;SDS011;11608;50.894;5.296;2023-04-05T14:51:55;27.80;;;25.50;;
22881;SDS011;11608;50.894;5.296;2023-04-05T14:54:22;28.20;;;25.77;;
22881;SDS011;11608;50.894;5.296;2023-04-05T14:56:50;27.58;;;25.27;;
22881;SDS011;11608;50.894;5.296;2023-04-05T14:59:16;27.58;;;25.35;;
22881;SDS011;11608;50.894;5.296;2023-04-05T15:01:42;27.48;;;25.17;;
22881;SDS011;11608;50.894;5.296;2023-04-05T15:04:11;28.27;;;25.98;;
22881;SDS011;11608;50.894;5.296;2023-04-05T15:06:37;28.48;;;26.17;;